Flight Track Log - Related Links

Times and Time Zones

All times are in EDT time to prevent confusion due to time zone crossing. See the GJS3618 flight status page for this flight to view local times or setup timezone preferences in your user account.

Time Position Orientation Groundspeed Altitude Reporting Facility
EDT Latitude Longitude Course Direction KTS MPH feet Rate Location/Type
Sun 11:23:31 PM 42.0000 -87.9500 334° Northwest 169 194 2,300  Level Chicago TRACON
Sun 11:24:19 PM 42.0500 -87.9833 334° Northwest 210 242 4,200 2,204 Climbing Chicago TRACON
Sun 11:26:47 PM 42.1183 -88.1864 294° West 297 342 9,500 2,067 Climbing Chicago Center
Sun 11:27:48 PM 42.1022 -88.2986 259° West 306 352 11,400 1,820 Climbing Chicago Center
Sun 11:28:49 PM 42.0847 -88.4200 259° West 321 369 13,200 1,918 Climbing Chicago Center
Sun 11:29:50 PM 42.0739 -88.5514 264° West 347 399 15,300 2,115 Climbing Chicago Center
Sun 11:30:51 PM 42.0703 -88.6831 268° West 354 407 17,500 2,016 Climbing Chicago Center
Sun 11:31:52 PM 42.0700 -88.8144 270° West 355 409 19,400 1,918 Climbing Chicago Center
Sun 11:32:53 PM 42.0717 -88.9461 271° West 356 410 21,400 1,820 Climbing Chicago Center
Sun 11:33:54 PM 42.0742 -89.0781 272° West 353 406 23,100 1,377 Climbing Chicago Center
Sun 11:34:55 PM 42.0764 -89.2433 271° West 373 429 24,200 1,131 Climbing Chicago Center
Sun 11:35:56 PM 42.0789 -89.3928 271° West 392 451 25,400 1,180 Climbing Chicago Center
Sun 11:36:57 PM 42.0800 -89.5433 271° West 400 460 26,600 1,230 Climbing Chicago Center
Sun 11:37:58 PM 42.0847 -89.6972 272° West 408 470 27,900 1,230 Climbing Chicago Center
Sun 11:38:59 PM 42.0906 -89.8503 273° West 408 470 29,100 1,180 Climbing Chicago Center
Sun 11:40:00 PM 42.0961 -90.0044 273° West 409 471 30,300 1,140 Climbing Chicago Center
Sun 11:41:00 PM 42.1022 -90.1567 273° West 410 472 31,400 893 Climbing Chicago Center
Sun 11:42:01 PM 42.1100 -90.3081 274° West 409 471 32,100 590 Climbing Chicago Center
Sun 11:43:02 PM 42.1378 -90.4606 284° West 428 493 32,600 492 Climbing Chicago Center
Sun 11:44:03 PM 42.1781 -90.6139 290° West 434 499 33,100 492 Climbing Chicago Center
Sun 11:45:04 PM 42.2203 -90.7661 291° West 438 504 33,600 443 Climbing Chicago Center
Sun 11:46:05 PM 42.2628 -90.9219 290° West 445 512 34,000 197 Climbing Chicago Center
Sun 11:47:06 PM 42.3050 -91.0833 290° West 457 526 34,000  Level Chicago Center
Sun 11:48:06 PM 42.3481 -91.2461 290° West 462 532 34,000  Level Chicago Center
Sun 11:49:07 PM 42.3997 -91.4450 289° West 470 541 34,000  Level Chicago Center
Sun 11:50:08 PM 42.4444 -91.6119 290° West 471 542 34,000 393 Level Chicago Center
Sun 11:51:09 PM 42.4875 -91.7767 290° West 465 535 34,800 787 Climbing Chicago Center
Sun 11:52:10 PM 42.5292 -91.9408 289° West 460 529 35,600 595 Climbing Chicago Center
Sun 11:53:10 PM 42.5708 -92.1014 289° West 454 522 36,000 198 Climbing Chicago Center
Sun 11:54:11 PM 42.6111 -92.2622 289° West 453 521 36,000  Level Chicago Center
Sun 11:55:12 PM 42.6533 -92.4267 289° West 461 531 36,000  Level Chicago Center
Sun 11:56:13 PM 42.6942 -92.5903 289° West 461 531 36,000  Level Chicago Center
Sun 11:57:14 PM 42.7350 -92.7556 289° West 463 533 36,000  Level Chicago Center
Sun 11:58:14 PM 42.7761 -92.9219 289° West 468 539 36,000  Level Chicago Center
Sun 11:59:15 PM 42.8181 -93.0858 289° West 462 532 36,000  Level Chicago Center
Mon 12:00:16 AM 42.8553 -93.2500 287° West 460 529 36,000  Level Chicago Center
Mon 12:01:17 AM 42.8956 -93.4156 288° West 462 532 36,000  Level Chicago Center
Mon 12:02:18 AM 42.9350 -93.5792 288° West 460 529 36,000  Level Chicago Center
Mon 12:03:19 AM 42.9800 -93.7781 287° West 460 529 36,000  Level Chicago Center
Mon 12:03:52 AM 42.9914 -93.8114 295° West 462 532 36,000  Level Minneapolis Center
Mon 12:04:53 AM 43.0353 -94.0119 287° West 464 534 36,000  Level Minneapolis Center
Mon 12:05:53 AM 43.0842 -94.2089 289° West 461 531 36,000 149 Level Minneapolis Center
Mon 12:06:54 AM 43.1200 -94.3611 288° West 458 527 36,300 393 Climbing Minneapolis Center
Mon 12:07:55 AM 43.1581 -94.5278 287° West 460 529 36,800 492 Climbing Minneapolis Center
Mon 12:08:56 AM 43.1956 -94.6897 288° West 451 519 37,300 496 Climbing Minneapolis Center
Mon 12:09:56 AM 43.2328 -94.8492 288° West 442 509 37,800 316 Climbing Minneapolis Center
Mon 12:11:09 AM 43.2678 -95.0092 287° West 440 506 38,000 82 Climbing Minneapolis Center
Mon 12:12:22 AM 43.3197 -95.2347 288° West 442 509 38,000  Level Minneapolis Center
Mon 12:13:23 AM 43.3628 -95.4317 287° West 446 513 38,000  Level Minneapolis Center
Mon 12:14:23 AM 43.3989 -95.5956 287° West 448 516 38,000  Level Minneapolis Center
Mon 12:15:24 AM 43.4344 -95.7600 287° West 448 516 38,000  Level Minneapolis Center
Mon 12:16:37 AM 43.4697 -95.9247 286° West 449 517 38,000  Level Minneapolis Center
Mon 12:17:37 AM 43.5114 -96.1203 286° West 444 511 38,000  Level Minneapolis Center
Mon 12:18:38 AM 43.5461 -96.2836 286° West 444 511 38,000  Level Minneapolis Center
Mon 12:19:39 AM 43.5803 -96.4456 286° West 441 507 38,000  Level Minneapolis Center
Mon 12:20:39 AM 43.6139 -96.6103 286° West 442 509 38,000  Level Minneapolis Center
Mon 12:21:40 AM 43.6475 -96.7722 286° West 440 506 38,000  Level Minneapolis Center
Mon 12:22:41 AM 43.6961 -96.9242 294° West 432 497 38,000  Level Minneapolis Center
Mon 12:23:41 AM 43.7436 -97.0767 293° West 431 496 38,000  Level Minneapolis Center
Mon 12:24:42 AM 43.7911 -97.2278 294° West 429 494 38,000  Level Minneapolis Center
Mon 12:25:42 AM 43.8383 -97.3800 293° West 430 495 38,000  Level Minneapolis Center
Mon 12:26:43 AM 43.8847 -97.5319 293° West 428 493 38,000  Level Minneapolis Center
Mon 12:27:44 AM 43.9319 -97.6842 293° West 430 495 38,000  Level Minneapolis Center
Mon 12:28:44 AM 43.9797 -97.8356 294° West 430 495 38,000  Level Minneapolis Center
Mon 12:29:45 AM 44.0253 -97.9881 293° West 428 493 38,000  Level Minneapolis Center
Mon 12:30:57 AM 44.0811 -98.1728 293° West 432 497 38,000  Level Minneapolis Center
Mon 12:31:58 AM 44.1275 -98.3258 293° West 431 496 38,000  Level Minneapolis Center
Mon 12:32:58 AM 44.1747 -98.4794 293° West 432 497 38,000  Level Minneapolis Center
Mon 12:33:59 AM 44.2197 -98.6347 292° West 433 498 38,000  Level Minneapolis Center
Mon 12:35:00 AM 44.2658 -98.7922 292° West 432 497 38,000  Level Minneapolis Center
Mon 12:36:00 AM 44.3114 -98.9467 292° West 431 496 38,000  Level Minneapolis Center
Mon 12:37:01 AM 44.3561 -99.0989 292° West 426 490 38,000  Level Minneapolis Center
Mon 12:38:01 AM 44.3994 -99.2514 292° West 423 487 38,000  Level Minneapolis Center
Mon 12:39:02 AM 44.4433 -99.4044 292° West 423 487 38,000  Level Minneapolis Center
Mon 12:40:02 AM 44.4875 -99.5569 292° West 423 487 38,000  Level Minneapolis Center
Mon 12:41:03 AM 44.5303 -99.7103 291° West 422 486 38,000  Level Minneapolis Center
Mon 12:42:04 AM 44.5744 -99.8661 292° West 426 490 38,000  Level Minneapolis Center
Mon 12:43:04 AM 44.6189 -100.0211 292° West 426 490 38,000  Level Minneapolis Center
Mon 12:44:05 AM 44.6622 -100.1775 291° West 426 490 38,000  Level Minneapolis Center
Mon 12:45:05 AM 44.7056 -100.3364 291° West 430 495 38,000  Level Minneapolis Center
Mon 12:46:05 AM 44.7494 -100.4919 292° West 427 491 38,000  Level Minneapolis Center
Mon 12:47:06 AM 44.7931 -100.6500 291° West 429 494 38,000  Level Minneapolis Center
Mon 12:48:06 AM 44.8364 -100.8081 291° West 431 496 38,000  Level Minneapolis Center
Mon 12:49:07 AM 44.8792 -100.9672 291° West 433 498 38,000  Level Minneapolis Center
Mon 12:50:07 AM 44.9244 -101.1253 292° West 433 498 38,000  Level Minneapolis Center
Mon 12:51:08 AM 44.9661 -101.2822 291° West 429 494 38,000  Level Minneapolis Center
Mon 12:52:08 AM 45.0072 -101.4369 291° West 423 487 38,000  Level Minneapolis Center
Mon 12:53:09 AM 45.0481 -101.5917 291° West 421 484 38,000  Level Minneapolis Center
Mon 12:54:09 AM 45.0861 -101.7475 289° West 420 483 38,000  Level Minneapolis Center
Mon 12:55:10 AM 45.1067 -101.9119 280° West 422 486 38,000  Level Minneapolis Center
Mon 12:56:10 AM 45.1339 -102.1086 281° West 424 488 38,000  Level Minneapolis Center
Mon 12:57:11 AM 45.1550 -102.2719 280° West 422 486 38,000  Level Minneapolis Center
Mon 12:58:11 AM 45.1769 -102.4356 281° West 423 487 38,000  Level Minneapolis Center
Mon 12:59:12 AM 45.1978 -102.5986 280° West 422 486 38,000  Level Minneapolis Center
Mon 01:00:12 AM 45.2186 -102.7622 280° West 422 486 38,000  Level Minneapolis Center
Mon 01:01:12 AM 45.2403 -102.9256 281° West 422 486 38,000  Level Minneapolis Center
Mon 01:02:13 AM 45.2600 -103.0897 280° West 423 487 38,000 -61 Level Minneapolis Center
Mon 01:02:50 AM 45.2703 -103.1697 280° West 417 480 37,900  Descending Salt Lake Center
Mon 01:03:51 AM 45.2903 -103.3369 280° West 423 487 38,000  Climbing Salt Lake Center
Mon 01:04:52 AM 45.3106 -103.5000 280° West 423 487 37,900 -49 Descending Salt Lake Center
Mon 01:05:53 AM 45.3294 -103.6639 279° West 422 486 37,900 49 Level Salt Lake Center
Mon 01:06:54 AM 45.3489 -103.8253 280° West 419 482 38,000 50 Climbing Salt Lake Center
Mon 01:07:54 AM 45.3681 -103.9908 279° West 422 486 38,000  Level Salt Lake Center
Mon 01:08:55 AM 45.3875 -104.1583 279° West 425 489 38,000  Level Salt Lake Center
Mon 01:09:56 AM 45.4069 -104.3283 279° West 430 495 38,000  Level Salt Lake Center
Mon 01:10:57 AM 45.4258 -104.5031 279° West 438 504 38,000 -49 Level Salt Lake Center
Mon 01:11:58 AM 45.4494 -104.7119 279° West 443 510 37,900  Descending Salt Lake Center
Mon 01:12:58 AM 45.4678 -104.8842 279° West 442 509 38,000 50 Climbing Salt Lake Center
Mon 01:13:59 AM 45.4867 -105.0550 279° West 440 506 38,000  Level Salt Lake Center
Mon 01:15:00 AM 45.5053 -105.2250 279° West 437 503 38,000  Level Salt Lake Center
Mon 01:16:01 AM 45.5233 -105.3981 279° West 440 506 38,000  Level Salt Lake Center
Mon 01:17:02 AM 45.5408 -105.5703 278° West 439 505 38,000  Level Salt Lake Center
Mon 01:18:02 AM 45.5572 -105.7422 278° West 439 505 38,000  Level Salt Lake Center
Mon 01:19:03 AM 45.5756 -105.9147 279° West 440 506 38,000  Level Salt Lake Center
Mon 01:20:04 AM 45.5917 -106.0869 278° West 440 506 38,000  Level Salt Lake Center
Mon 01:21:05 AM 45.6089 -106.2597 278° West 440 506 38,000  Level Salt Lake Center
Mon 01:22:06 AM 45.6244 -106.4314 277° West 438 504 38,000  Level Salt Lake Center
Mon 01:23:06 AM 45.6406 -106.6022 278° West 436 502 38,000  Level Salt Lake Center
Mon 01:24:07 AM 45.6539 -106.7697 277° West 433 498 38,000  Level Salt Lake Center
Mon 01:25:08 AM 45.6669 -106.9361 276° West 429 494 38,000  Level Salt Lake Center
Mon 01:26:09 AM 45.6836 -107.1064 278° West 428 493 38,000  Level Salt Lake Center
Mon 01:27:09 AM 45.7022 -107.3042 278° West 430 495 38,000  Level Salt Lake Center
Mon 01:28:10 AM 45.7167 -107.4719 277° West 432 497 38,000  Level Salt Lake Center
Mon 01:29:11 AM 45.7308 -107.6392 277° West 429 494 38,000  Level Salt Lake Center
Mon 01:30:11 AM 45.7458 -107.8206 277° West 425 489 38,000  Level Salt Lake Center
Mon 01:31:12 AM 45.7592 -107.9861 277° West 425 489 38,000  Level Salt Lake Center
Mon 01:32:13 AM 45.7725 -108.1514 277° West 428 493 38,000  Level Salt Lake Center
Mon 01:33:13 AM 45.7856 -108.3189 276° West 423 487 38,000 -50 Level Salt Lake Center
Mon 01:34:14 AM 45.7925 -108.4917 273° West 439 505 37,900  Descending Salt Lake Center
Mon 01:35:15 AM 45.8075 -108.6744 277° West 455 524 38,000 -645 Climbing Salt Lake Center
Mon 01:36:15 AM 45.8083 -108.8528 270° West 422 486 36,600 -1,884 Descending Salt Lake Center
Mon 01:37:16 AM 45.8081 -109.0233 270° West 432 497 34,200 -2,262 Descending Salt Lake Center
Mon 01:38:17 AM 45.8072 -109.1967 270° West 439 505 32,000 -2,281 Descending Salt Lake Center
Mon 01:39:17 AM 45.8064 -109.3711 270° West 442 509 29,600 -2,479 Descending Salt Lake Center
Mon 01:40:18 AM 45.8053 -109.5581 270° West 439 505 27,000 -2,459 Descending Salt Lake Center
Mon 01:41:19 AM 45.8033 -109.7311 269° West 444 511 24,600 -2,231 Descending Salt Lake Center
Mon 01:42:19 AM 45.8014 -109.8894 269° West 436 502 22,500 -2,430 Descending Salt Lake Center
Mon 01:43:20 AM 45.7986 -110.0772 269° West 429 494 19,700 -2,380 Descending Salt Lake Center
Mon 01:44:20 AM 45.7961 -110.2350 269° West 422 486 17,700 -2,182 Descending Salt Lake Center
Mon 01:45:21 AM 45.7931 -110.3897 268° West 416 479 15,300 -2,311 Descending Salt Lake Center
Mon 01:46:22 AM 45.7908 -110.5625 269° West 405 466 13,000 -1,488 Descending Salt Lake Center
Mon 01:47:22 AM 45.7892 -110.6950 269° West 395 455 12,300 -545 Descending Salt Lake Center
Mon 01:48:23 AM 45.7856 -110.8061 267° West 339 390 11,900 -198 Descending Salt Lake Center
Mon 01:49:23 AM 45.7831 -110.9147 268° West 284 327 11,900 -744 Level Salt Lake Center
Mon 01:50:24 AM 45.7811 -111.0078 268° West 254 292 10,400 -1,488 Descending Salt Lake Center
Mon 01:51:24 AM 45.7786 -111.0972 268° West 237 273 8,900 -1,339 Descending Salt Lake Center
Mon 01:52:25 AM 45.7750 -111.1761 266° West 232 267 7,700 -934 Descending Salt Lake Center
Mon 01:53:26 AM 45.7836 -111.2628 278° West 226 260 7,000 -496 Descending Salt Lake Center
Mon 01:54:26 AM 45.8294 -111.2847 342° North 208 239 6,700 -645 Descending Salt Lake Center
Mon 01:55:27 AM 45.8339 -111.2319 83° East 170 196 5,700 -992 Descending Salt Lake Center
Mon 01:56:27 AM 45.8003 -111.1833 135° Southeast 150 173 4,700 -1,000 Descending Salt Lake Center

Login

Don't have an account? Register now (free) for customized features, flight alerts, and more!